createdAt,value
2023-05-20T00:01:29.320Z,11.88
2023-05-20T00:03:55.644Z,11.75
2023-05-20T00:06:21.680Z,11.70
2023-05-20T00:08:47.563Z,11.86
2023-05-20T00:11:13.530Z,11.66
2023-05-20T00:13:39.442Z,11.80
2023-05-20T00:16:05.772Z,11.70
2023-05-20T00:18:32.022Z,11.79
2023-05-20T00:20:58.199Z,11.76
2023-05-20T00:23:24.151Z,11.89
2023-05-20T00:25:50.127Z,11.66
2023-05-20T00:28:16.015Z,11.43
2023-05-20T00:30:42.085Z,11.53
2023-05-20T00:33:08.191Z,11.57
2023-05-20T00:35:34.531Z,11.68
2023-05-20T00:38:00.587Z,11.73
2023-05-20T00:40:26.524Z,11.60
2023-05-20T00:42:52.415Z,11.58
2023-05-20T00:45:18.333Z,11.64
2023-05-20T00:47:44.514Z,11.63
2023-05-20T00:50:11.067Z,11.52
2023-05-20T00:52:38.064Z,11.42
2023-05-20T00:55:04.153Z,11.38
2023-05-20T00:57:30.192Z,11.33
2023-05-20T00:59:56.386Z,11.20
2023-05-20T01:02:22.631Z,11.17
2023-05-20T01:04:49.253Z,11.19
2023-05-20T01:07:18.075Z,11.22
2023-05-20T01:09:44.209Z,11.10
2023-05-20T01:12:29.067Z,11.04
2023-05-20T01:15:07.877Z,10.97
2023-05-20T01:17:38.128Z,10.81
2023-05-20T01:20:09.073Z,10.82
2023-05-20T01:22:37.647Z,10.82
2023-05-20T01:25:04.750Z,10.96
2023-05-20T01:27:30.886Z,10.89
2023-05-20T01:29:56.918Z,10.80
2023-05-20T01:32:31.980Z,10.92
2023-05-20T01:34:59.582Z,10.88
2023-05-20T01:37:27.580Z,10.75
2023-05-20T01:39:55.993Z,10.63
2023-05-20T01:42:23.169Z,10.87
2023-05-20T01:44:49.228Z,10.89
2023-05-20T01:47:15.192Z,10.99
2023-05-20T01:49:41.197Z,11.08
2023-05-20T01:52:07.249Z,11.08
2023-05-20T01:54:33.273Z,10.95
2023-05-20T01:56:59.335Z,10.89
2023-05-20T01:59:25.209Z,11.05
2023-05-20T02:01:51.164Z,10.89
2023-05-20T02:04:18.396Z,10.79
2023-05-20T02:06:45.217Z,10.87
2023-05-20T02:09:11.521Z,11.00
2023-05-20T02:11:37.348Z,10.96
2023-05-20T02:14:03.233Z,10.89
2023-05-20T02:16:29.333Z,10.92
2023-05-20T02:18:55.313Z,10.93
2023-05-20T02:21:21.884Z,10.75
2023-05-20T02:23:47.794Z,10.76
2023-05-20T02:26:13.975Z,10.74
2023-05-20T02:28:44.197Z,10.52
2023-05-20T02:31:10.096Z,10.48
2023-05-20T02:33:36.198Z,10.56
2023-05-20T02:36:02.367Z,10.40
2023-05-20T02:38:28.445Z,10.34
2023-05-20T02:40:56.046Z,10.40
2023-05-20T02:43:21.946Z,10.32
2023-05-20T02:45:48.031Z,10.31
2023-05-20T02:48:14.053Z,10.27
2023-05-20T02:50:40.355Z,10.42
2023-05-20T02:53:06.533Z,10.57
2023-05-20T02:55:36.145Z,10.63
2023-05-20T02:58:03.187Z,10.53
2023-05-20T03:00:30.691Z,10.60
2023-05-20T03:02:58.415Z,10.59
2023-05-20T03:05:24.350Z,10.55
2023-05-20T03:07:50.456Z,10.65
2023-05-20T03:10:16.500Z,10.49
2023-05-20T03:12:42.682Z,10.40
2023-05-20T03:15:09.126Z,10.41
2023-05-20T03:17:35.098Z,10.38
2023-05-20T03:20:01.542Z,10.44
2023-05-20T03:22:27.409Z,10.36
2023-05-20T03:24:53.262Z,10.41
2023-05-20T03:27:19.126Z,10.44
2023-05-20T03:29:45.000Z,10.33
2023-05-20T03:32:11.042Z,10.31
2023-05-20T03:34:37.592Z,10.40
2023-05-20T03:37:03.511Z,10.39
2023-05-20T03:39:29.419Z,10.41
2023-05-20T03:41:55.517Z,10.38
2023-05-20T03:44:21.509Z,10.29
2023-05-20T03:46:47.417Z,10.30
2023-05-20T03:49:13.407Z,10.21
2023-05-20T03:51:40.412Z,10.29
2023-05-20T03:54:06.428Z,10.32
2023-05-20T03:56:32.442Z,10.23
2023-05-20T03:58:58.731Z,10.12
2023-05-20T04:01:25.142Z,10.20
2023-05-20T04:03:51.425Z,10.11
2023-05-20T04:06:17.443Z,10.16
2023-05-20T04:08:43.447Z,10.14
2023-05-20T04:11:09.406Z,10.30
2023-05-20T04:13:35.526Z,10.27
2023-05-20T04:16:02.253Z,10.17
2023-05-20T04:18:31.157Z,10.04
2023-05-20T04:20:57.477Z,10.25
2023-05-20T04:23:24.135Z,10.13
2023-05-20T04:25:50.081Z,10.20
2023-05-20T04:28:15.983Z,10.32
2023-05-20T04:30:44.362Z,10.33
2023-05-20T04:33:11.371Z,10.51
2023-05-20T04:35:40.865Z,10.59
2023-05-20T04:38:07.828Z,10.52
2023-05-20T04:40:33.952Z,10.44
2023-05-20T04:43:00.172Z,10.54
2023-05-20T04:45:26.152Z,10.70
2023-05-20T04:47:52.688Z,10.71
2023-05-20T04:50:19.030Z,10.77
2023-05-20T04:52:45.449Z,10.73
2023-05-20T04:55:12.979Z,10.61
2023-05-20T04:57:42.914Z,10.69
2023-05-20T05:00:12.764Z,10.77
2023-05-20T05:02:39.091Z,10.88
2023-05-20T05:05:05.496Z,10.93
2023-05-20T05:07:31.561Z,10.88
2023-05-20T05:09:57.461Z,10.91
2023-05-20T05:12:23.352Z,10.95
2023-05-20T05:14:49.262Z,10.80
2023-05-20T05:17:15.141Z,10.86
2023-05-20T05:19:41.060Z,10.92
2023-05-20T05:22:06.992Z,10.71
2023-05-20T05:24:33.131Z,10.85
2023-05-20T05:26:59.018Z,11.09
2023-05-20T05:29:25.010Z,11.02
2023-05-20T05:31:50.913Z,11.12
2023-05-20T05:34:16.795Z,11.07
2023-05-20T05:36:42.695Z,10.96
2023-05-20T05:39:08.794Z,10.96
2023-05-20T05:41:35.001Z,11.05
2023-05-20T05:44:01.213Z,11.16
2023-05-20T05:46:27.209Z,11.14
2023-05-20T05:48:53.211Z,11.19
2023-05-20T05:51:19.095Z,11.42
2023-05-20T05:53:45.061Z,11.29
2023-05-20T05:56:11.179Z,11.35
2023-05-20T05:58:37.950Z,11.42
2023-05-20T06:01:04.144Z,11.43
2023-05-20T06:03:30.644Z,11.36
2023-05-20T06:05:56.810Z,11.34
2023-05-20T06:08:22.729Z,11.56
2023-05-20T06:10:49.607Z,11.64
2023-05-20T06:13:16.314Z,11.54
2023-05-20T06:15:42.600Z,11.46
2023-05-20T06:18:08.476Z,11.30
2023-05-20T06:20:34.365Z,11.46
2023-05-20T06:23:00.370Z,11.54
2023-05-20T06:25:27.038Z,11.78
2023-05-20T06:27:53.064Z,11.79
2023-05-20T06:30:19.440Z,11.61
2023-05-20T06:32:45.940Z,11.62
2023-05-20T06:35:11.890Z,11.83
2023-05-20T06:37:37.940Z,11.90
2023-05-20T06:40:04.507Z,12.07
2023-05-20T06:42:30.385Z,12.03
2023-05-20T06:44:56.393Z,11.95
2023-05-20T06:47:22.445Z,11.94
2023-05-20T06:49:48.410Z,12.26
2023-05-20T06:52:14.526Z,12.40
2023-05-20T06:54:40.997Z,12.33
2023-05-20T06:57:08.174Z,12.48
2023-05-20T06:59:36.945Z,12.37
2023-05-20T07:02:03.490Z,12.47
2023-05-20T07:04:29.769Z,12.63
2023-05-20T07:06:55.815Z,12.68
2023-05-20T07:09:21.930Z,13.02
2023-05-20T07:11:47.853Z,12.81
2023-05-20T07:14:13.793Z,12.86
2023-05-20T07:16:40.640Z,12.79
2023-05-20T07:19:06.689Z,12.79
2023-05-20T07:21:32.893Z,12.67
2023-05-20T07:23:58.814Z,12.90
2023-05-20T07:26:24.748Z,12.95
2023-05-20T07:28:51.417Z,13.14
2023-05-20T07:31:17.439Z,13.14
2023-05-20T07:33:43.473Z,13.22
2023-05-20T07:36:11.240Z,13.28
2023-05-20T07:38:38.466Z,13.35
2023-05-20T07:41:06.318Z,13.42
2023-05-20T07:43:32.240Z,13.42
2023-05-20T07:45:58.460Z,13.62
2023-05-20T07:48:27.128Z,13.61
2023-05-20T07:50:53.096Z,13.56
2023-05-20T07:53:19.382Z,13.61
2023-05-20T07:55:45.325Z,13.76
2023-05-20T07:58:11.254Z,13.96
2023-05-20T08:00:37.185Z,14.07
2023-05-20T08:03:03.320Z,13.98
2023-05-20T08:05:29.309Z,13.96
2023-05-20T08:07:55.806Z,14.08
2023-05-20T08:10:21.668Z,13.88
2023-05-20T08:12:47.528Z,13.87
2023-05-20T08:15:13.453Z,13.90
2023-05-20T08:17:39.390Z,13.76
2023-05-20T08:20:07.464Z,13.90
2023-05-20T08:22:33.342Z,13.87
2023-05-20T08:24:59.262Z,14.03
2023-05-20T08:27:25.547Z,13.96
2023-05-20T08:29:51.411Z,13.97
2023-05-20T08:32:17.388Z,13.96
2023-05-20T08:34:43.315Z,13.79
2023-05-20T08:37:09.206Z,13.77
2023-05-20T08:39:35.159Z,13.96
2023-05-20T08:42:02.438Z,13.96
2023-05-20T08:44:29.421Z,14.06
2023-05-20T08:46:56.481Z,13.84
2023-05-20T08:49:22.637Z,13.90
2023-05-20T08:51:48.741Z,14.04
2023-05-20T08:54:16.233Z,13.91
2023-05-20T08:56:43.225Z,13.78
2023-05-20T08:59:09.570Z,13.75
2023-05-20T09:01:45.113Z,13.83
2023-05-20T09:04:11.243Z,13.79
2023-05-20T09:06:44.873Z,13.85
2023-05-20T09:09:14.265Z,13.95
2023-05-20T09:11:40.997Z,14.07
2023-05-20T09:14:07.508Z,14.14
2023-05-20T09:16:34.301Z,14.05
2023-05-20T09:19:00.560Z,14.05
2023-05-20T09:21:27.707Z,14.04
2023-05-20T09:23:56.665Z,14.01
2023-05-20T09:26:24.191Z,14.24
2023-05-20T09:28:50.877Z,14.14
2023-05-20T09:31:16.802Z,14.15
2023-05-20T09:33:43.235Z,14.18
2023-05-20T09:36:10.091Z,13.90
2023-05-20T09:38:40.894Z,14.17
2023-05-20T09:41:11.410Z,14.20
2023-05-20T09:43:39.569Z,14.30
2023-05-20T09:46:06.546Z,14.30
2023-05-20T09:48:34.086Z,14.38
2023-05-20T09:51:02.036Z,14.70
2023-05-20T09:53:28.169Z,14.61
2023-05-20T09:55:54.476Z,14.80
2023-05-20T09:58:21.881Z,14.86
2023-05-20T10:00:47.855Z,14.99
2023-05-20T10:03:14.350Z,15.29
2023-05-20T10:05:46.901Z,15.55
2023-05-20T10:08:34.678Z,15.26
2023-05-20T10:11:25.138Z,15.32
2023-05-20T10:14:25.014Z,15.38
2023-05-20T10:17:07.281Z,15.61
2023-05-20T10:19:34.384Z,15.80
2023-05-20T10:22:08.054Z,16.17
2023-05-20T10:24:43.769Z,16.49
2023-05-20T10:27:16.336Z,16.18
2023-05-20T10:32:28.460Z,16.53
2023-05-20T10:35:04.540Z,16.91
2023-05-20T10:37:33.208Z,16.93
2023-05-20T10:40:06.437Z,16.88
2023-05-20T10:42:32.482Z,16.78
2023-05-20T10:44:58.378Z,16.54
2023-05-20T10:47:26.292Z,16.37
2023-05-20T10:49:52.536Z,16.13
2023-05-20T10:52:19.544Z,16.18
2023-05-20T10:54:58.834Z,15.89
2023-05-20T10:57:28.948Z,15.88
2023-05-20T10:59:55.743Z,15.96
2023-05-20T11:02:28.325Z,15.91
2023-05-20T11:04:58.034Z,16.02
2023-05-20T11:07:28.581Z,16.09
2023-05-20T11:09:55.715Z,16.44
2023-05-20T11:12:25.812Z,16.78
2023-05-20T11:14:52.133Z,16.82
2023-05-20T11:17:19.577Z,16.74
2023-05-20T11:19:46.565Z,16.84
2023-05-20T11:22:13.080Z,16.65
2023-05-20T11:24:39.012Z,16.40
2023-05-20T11:27:06.277Z,16.50
2023-05-20T11:29:32.704Z,16.78
2023-05-20T11:31:59.572Z,16.84
2023-05-20T11:34:26.896Z,17.00
2023-05-20T11:36:59.311Z,16.73
2023-05-20T11:39:28.943Z,16.68
2023-05-20T11:41:55.073Z,16.58
2023-05-20T11:44:21.157Z,16.55
2023-05-20T11:46:48.072Z,16.43
2023-05-20T11:49:15.042Z,16.28
2023-05-20T11:51:43.036Z,16.06
2023-05-20T11:54:09.930Z,15.84
2023-05-20T11:56:37.360Z,15.58
2023-05-20T11:59:05.372Z,15.53
2023-05-20T12:01:40.498Z,15.58
2023-05-20T12:04:07.563Z,15.79
2023-05-20T12:06:36.434Z,15.81
2023-05-20T12:09:06.981Z,16.00
2023-05-20T12:11:35.125Z,15.62
2023-05-20T12:14:02.058Z,15.56
2023-05-20T12:16:28.590Z,15.85
2023-05-20T12:18:54.938Z,16.03
2023-05-20T12:21:20.967Z,16.15
2023-05-20T12:23:46.854Z,16.37
2023-05-20T12:26:12.854Z,16.53
2023-05-20T12:28:39.653Z,16.80
2023-05-20T12:31:05.819Z,16.68
2023-05-20T12:33:31.676Z,16.94
2023-05-20T12:35:57.769Z,17.16
2023-05-20T12:38:24.010Z,17.31
2023-05-20T12:40:50.054Z,17.26
2023-05-20T12:43:15.930Z,17.09
2023-05-20T12:45:43.504Z,16.93
2023-05-20T12:48:09.642Z,17.12
2023-05-20T12:50:35.864Z,17.03
2023-05-20T12:53:02.046Z,17.24
2023-05-20T12:55:28.037Z,17.41
2023-05-20T12:57:55.422Z,17.54
2023-05-20T13:00:21.549Z,17.56
2023-05-20T13:02:47.851Z,17.76
2023-05-20T13:05:14.418Z,17.74
2023-05-20T13:07:40.450Z,17.53
2023-05-20T13:10:07.603Z,17.27
2023-05-20T13:12:34.788Z,17.31
2023-05-20T13:15:00.676Z,16.91
2023-05-20T13:17:27.069Z,16.78
2023-05-20T13:19:54.083Z,16.89
2023-05-20T13:22:20.373Z,16.66
2023-05-20T13:24:46.253Z,16.48
2023-05-20T13:27:12.187Z,16.19
2023-05-20T13:29:38.136Z,16.07
2023-05-20T13:32:04.361Z,16.30
2023-05-20T13:34:30.948Z,16.20
2023-05-20T13:36:56.865Z,16.17
2023-05-20T13:39:22.968Z,16.07
2023-05-20T13:41:48.980Z,15.92
2023-05-20T13:44:15.040Z,15.93
2023-05-20T13:46:41.108Z,15.92
2023-05-20T13:49:07.129Z,15.84
2023-05-20T13:51:33.071Z,15.65
2023-05-20T13:53:59.034Z,15.78
2023-05-20T13:56:24.943Z,15.86
2023-05-20T13:58:50.823Z,15.87
2023-05-20T14:01:17.318Z,15.84
2023-05-20T14:03:43.441Z,15.75
2023-05-20T14:06:09.911Z,15.82
2023-05-20T14:08:35.771Z,15.88
2023-05-20T14:11:01.730Z,15.95
2023-05-20T14:13:27.681Z,16.14
2023-05-20T14:15:56.480Z,15.88
2023-05-20T14:18:22.729Z,15.86
2023-05-20T14:20:48.782Z,16.05
2023-05-20T14:23:14.859Z,15.99
2023-05-20T14:25:40.986Z,15.92
2023-05-20T14:28:06.890Z,15.85
2023-05-20T14:30:33.586Z,15.68
2023-05-20T14:33:00.119Z,15.73
2023-05-20T14:35:26.254Z,15.41
2023-05-20T14:37:52.224Z,15.32
2023-05-20T14:40:18.519Z,15.36
2023-05-20T14:42:44.631Z,15.46
2023-05-20T14:45:10.626Z,15.50
2023-05-20T14:47:39.417Z,15.38
2023-05-20T14:50:08.480Z,15.31
2023-05-20T14:52:38.539Z,15.44
2023-05-20T14:55:05.386Z,15.22
2023-05-20T14:57:32.640Z,15.35
2023-05-20T14:59:58.460Z,15.39
2023-05-20T15:02:24.562Z,15.39
2023-05-20T15:04:50.630Z,15.34
2023-05-20T15:07:16.635Z,15.36
2023-05-20T15:09:43.202Z,15.32
2023-05-20T15:12:10.549Z,15.41
2023-05-20T15:14:36.551Z,15.41
2023-05-20T15:17:03.898Z,15.35
2023-05-20T15:19:31.963Z,15.35
2023-05-20T15:21:58.710Z,15.27
2023-05-20T15:24:24.852Z,15.36
2023-05-20T15:26:51.937Z,15.32
2023-05-20T15:29:17.845Z,15.16
2023-05-20T15:31:43.868Z,15.16
2023-05-20T15:34:09.901Z,15.02
2023-05-20T15:36:36.009Z,15.00
2023-05-20T15:39:01.932Z,14.94
2023-05-20T15:41:27.858Z,14.93
2023-05-20T15:43:53.955Z,14.89
2023-05-20T15:46:20.228Z,14.78
2023-05-20T15:48:46.229Z,14.94
2023-05-20T15:51:13.855Z,15.11
2023-05-20T15:53:40.760Z,14.98
2023-05-20T15:56:07.444Z,14.94
2023-05-20T15:58:33.311Z,14.85
2023-05-20T16:00:59.258Z,14.91
2023-05-20T16:03:25.227Z,15.16
2023-05-20T16:05:51.375Z,15.35
2023-05-20T16:08:17.472Z,15.34
2023-05-20T16:10:43.369Z,15.50
2023-05-20T16:13:09.255Z,15.60
2023-05-20T16:15:37.263Z,15.70
2023-05-20T16:18:04.135Z,15.61
2023-05-20T16:20:30.095Z,15.64
2023-05-20T16:22:56.102Z,15.45
2023-05-20T16:25:22.063Z,15.39
2023-05-20T16:27:47.964Z,15.38
2023-05-20T16:30:13.969Z,15.22
2023-05-20T16:32:40.261Z,15.14
2023-05-20T16:35:06.961Z,15.17
2023-05-20T16:37:33.767Z,15.18
2023-05-20T16:40:00.028Z,15.18
2023-05-20T16:42:25.919Z,15.13
2023-05-20T16:44:51.893Z,14.99
2023-05-20T16:47:17.784Z,14.87
2023-05-20T16:49:43.634Z,14.99
2023-05-20T16:52:09.634Z,14.93
2023-05-20T16:54:35.642Z,14.86
2023-05-20T16:57:03.097Z,14.99
2023-05-20T16:59:30.000Z,15.04
2023-05-20T17:01:56.429Z,15.14
2023-05-20T17:04:23.124Z,15.10
2023-05-20T17:06:49.725Z,15.01
2023-05-20T17:09:16.071Z,15.04
2023-05-20T17:11:42.330Z,14.89
2023-05-20T17:14:08.310Z,14.77
2023-05-20T17:16:34.241Z,14.85
2023-05-20T17:19:00.196Z,14.90
2023-05-20T17:21:26.528Z,14.87
2023-05-20T17:23:52.430Z,14.83
2023-05-20T17:26:18.376Z,15.00
2023-05-20T17:28:44.275Z,14.86
2023-05-20T17:31:10.769Z,14.97
2023-05-20T17:33:36.740Z,14.85
2023-05-20T17:36:02.946Z,14.92
2023-05-20T17:38:28.824Z,15.01
2023-05-20T17:40:54.892Z,15.13
2023-05-20T17:43:21.419Z,15.44
2023-05-20T17:45:47.919Z,15.64
2023-05-20T17:48:14.322Z,15.61
2023-05-20T17:50:40.959Z,15.43
2023-05-20T17:53:07.030Z,15.54
2023-05-20T17:55:35.628Z,15.71
2023-05-20T17:58:06.527Z,15.80
2023-05-20T18:00:33.870Z,15.62
2023-05-20T18:03:00.274Z,15.40
2023-05-20T18:05:26.889Z,15.15
2023-05-20T18:07:52.839Z,15.26
2023-05-20T18:10:19.152Z,15.16
2023-05-20T18:12:45.007Z,15.07
2023-05-20T18:15:16.325Z,15.00
2023-05-20T18:17:42.423Z,14.98
2023-05-20T18:20:11.867Z,15.06
2023-05-20T18:22:44.218Z,15.01
2023-05-20T18:25:16.492Z,14.77
2023-05-20T18:27:42.726Z,14.84
2023-05-20T18:30:09.441Z,14.75
2023-05-20T18:32:35.754Z,14.54
2023-05-20T18:35:02.064Z,14.48
2023-05-20T18:37:28.161Z,14.49
2023-05-20T18:39:56.416Z,14.41
2023-05-20T18:42:22.378Z,14.30
2023-05-20T18:44:48.374Z,14.37
2023-05-20T18:47:16.195Z,14.34
2023-05-20T18:49:42.531Z,14.31
2023-05-20T18:52:08.692Z,14.18
2023-05-20T18:54:34.797Z,14.22
2023-05-20T18:57:04.269Z,14.18
2023-05-20T18:59:31.370Z,14.22
2023-05-20T19:01:57.961Z,14.11
2023-05-20T19:04:24.928Z,14.13
2023-05-20T19:06:52.321Z,13.98
2023-05-20T19:09:21.231Z,13.83
2023-05-20T19:11:47.174Z,13.90
2023-05-20T19:14:13.842Z,13.79
2023-05-20T19:16:41.073Z,13.82
2023-05-20T19:19:07.043Z,13.67
2023-05-20T19:21:33.077Z,13.63
2023-05-20T19:23:58.994Z,13.55
2023-05-20T19:26:25.944Z,13.50
2023-05-20T19:28:52.061Z,13.44
2023-05-20T19:31:20.350Z,13.49
2023-05-20T19:33:48.429Z,13.33
2023-05-20T19:36:15.218Z,13.32
2023-05-20T19:38:41.530Z,13.36
2023-05-20T19:41:09.931Z,13.32
2023-05-20T19:43:36.069Z,13.33
2023-05-20T19:46:02.129Z,13.35
2023-05-20T19:48:28.117Z,13.45
2023-05-20T19:50:54.119Z,13.38
2023-05-20T19:53:20.544Z,13.39
2023-05-20T19:55:47.022Z,13.41
2023-05-20T19:58:13.237Z,13.41
2023-05-20T20:00:39.231Z,13.39
2023-05-20T20:03:06.723Z,13.29
2023-05-20T20:05:33.327Z,13.24
2023-05-20T20:07:59.514Z,13.34
2023-05-20T20:10:25.672Z,13.33
2023-05-20T20:12:51.725Z,13.27
2023-05-20T20:15:19.706Z,13.15
2023-05-20T20:17:51.087Z,13.16
2023-05-20T20:20:17.987Z,13.13
2023-05-20T20:22:44.096Z,13.12
2023-05-20T20:25:13.147Z,13.11
2023-05-20T20:27:45.852Z,13.16
2023-05-20T20:30:13.166Z,13.15
2023-05-20T20:32:40.420Z,13.15
2023-05-20T20:35:07.291Z,13.15
2023-05-20T20:37:34.716Z,13.02
2023-05-20T20:40:12.254Z,13.05
2023-05-20T20:42:44.221Z,13.06
2023-05-20T20:45:14.543Z,13.01
2023-05-20T20:47:43.036Z,13.06
2023-05-20T20:50:11.097Z,12.86
2023-05-20T20:52:42.106Z,12.86
2023-05-20T20:55:11.990Z,12.81
2023-05-20T20:57:38.556Z,12.77
2023-05-20T21:00:20.620Z,12.86
2023-05-20T21:02:47.514Z,12.89
2023-05-20T21:05:16.948Z,12.93
2023-05-20T21:07:45.887Z,12.92
2023-05-20T21:10:12.362Z,12.89
2023-05-20T21:12:38.423Z,12.89
2023-05-20T21:15:04.994Z,12.90
2023-05-20T21:17:30.883Z,12.93
2023-05-20T21:19:56.783Z,12.90
2023-05-20T21:22:22.691Z,12.88
2023-05-20T21:24:48.605Z,12.84
2023-05-20T21:27:16.267Z,12.66
2023-05-20T21:29:42.437Z,12.58
2023-05-20T21:32:08.395Z,12.55
2023-05-20T21:34:34.386Z,12.52
2023-05-20T21:37:00.308Z,12.51
2023-05-20T21:39:26.283Z,12.52
2023-05-20T21:41:52.176Z,12.56
2023-05-20T21:44:18.141Z,12.63
2023-05-20T21:46:44.332Z,12.68
2023-05-20T21:49:10.313Z,12.57
2023-05-20T21:51:36.232Z,12.59
2023-05-20T21:54:02.131Z,12.43
2023-05-20T21:56:28.153Z,12.35
2023-05-20T21:58:54.141Z,12.32
2023-05-20T22:01:20.500Z,12.32
2023-05-20T22:03:49.575Z,12.37
2023-05-20T22:06:17.108Z,12.33
2023-05-20T22:08:43.175Z,12.38
2023-05-20T22:11:09.077Z,12.29
2023-05-20T22:13:35.420Z,12.33
2023-05-20T22:16:03.968Z,12.32
2023-05-20T22:18:30.383Z,12.24
2023-05-20T22:21:00.328Z,12.23
2023-05-20T22:23:27.208Z,12.29
2023-05-20T22:25:54.309Z,12.28
2023-05-20T22:28:20.648Z,12.36
2023-05-20T22:30:46.869Z,12.29
2023-05-20T22:33:12.811Z,12.21
2023-05-20T22:35:38.707Z,12.25
2023-05-20T22:38:04.792Z,12.22
2023-05-20T22:40:30.751Z,12.22
2023-05-20T22:42:56.702Z,12.14
2023-05-20T22:45:22.584Z,12.19
2023-05-20T22:47:48.491Z,12.08
2023-05-20T22:50:14.449Z,11.92
2023-05-20T22:52:40.848Z,11.96
2023-05-20T22:55:07.338Z,12.00
2023-05-20T22:57:33.225Z,11.90
2023-05-20T22:59:59.332Z,11.99
2023-05-20T23:02:25.429Z,12.01
2023-05-20T23:04:51.746Z,12.08
2023-05-20T23:07:18.801Z,12.13
2023-05-20T23:09:49.611Z,12.21
2023-05-20T23:12:15.726Z,12.13
2023-05-20T23:14:41.622Z,12.16
2023-05-20T23:17:07.552Z,12.20
2023-05-20T23:19:33.641Z,12.09
2023-05-20T23:21:59.654Z,11.94
2023-05-20T23:24:25.946Z,12.03
2023-05-20T23:26:53.191Z,12.07
2023-05-20T23:29:20.784Z,12.09
2023-05-20T23:31:48.795Z,12.14
2023-05-20T23:34:16.599Z,12.19
2023-05-20T23:36:42.528Z,12.18
2023-05-20T23:39:08.621Z,12.17
2023-05-20T23:41:34.930Z,12.10
2023-05-20T23:44:01.804Z,11.98
2023-05-20T23:46:28.091Z,12.02
2023-05-20T23:48:54.011Z,12.03
2023-05-20T23:51:22.969Z,11.90
2023-05-20T23:53:48.925Z,11.84
2023-05-20T23:56:15.237Z,11.85
2023-05-20T23:58:41.081Z,11.83
